sensor_id;sensor_type;location;lat;lon;timestamp;pressure;altitude;pressure_sealevel;temperature;humidity
68199;BME280;55021;51.554;17.044;2024-01-27T00:09:47;101217.75;;;4.88;88.33
68199;BME280;55021;51.554;17.044;2024-01-27T00:24:50;101198.31;;;4.97;86.19
68199;BME280;55021;51.554;17.044;2024-01-27T00:39:52;101222.47;;;4.33;86.43
68199;BME280;55021;51.554;17.044;2024-01-27T00:54:55;101189.78;;;4.14;84.11
68199;BME280;55021;51.554;17.044;2024-01-27T01:09:57;101248.88;;;4.26;84.99
68199;BME280;55021;51.554;17.044;2024-01-27T01:24:59;101254.91;;;4.30;88.29
68199;BME280;55021;51.554;17.044;2024-01-27T01:40:02;101265.91;;;4.13;92.03
68199;BME280;55021;51.554;17.044;2024-01-27T01:55:04;101286.88;;;4.20;91.32
68199;BME280;55021;51.554;17.044;2024-01-27T02:10:12;101249.53;;;3.76;90.84
68199;BME280;55021;51.554;17.044;2024-01-27T02:25:15;101296.03;;;4.04;91.14
68199;BME280;55021;51.554;17.044;2024-01-27T02:40:17;101305.03;;;4.03;91.07
68199;BME280;55021;51.554;17.044;2024-01-27T02:55:19;101330.66;;;3.94;90.75
68199;BME280;55021;51.554;17.044;2024-01-27T03:10:21;101333.03;;;3.99;88.99
68199;BME280;55021;51.554;17.044;2024-01-27T03:25:25;101323.69;;;3.77;88.81
68199;BME280;55021;51.554;17.044;2024-01-27T03:40:27;101352.47;;;4.43;84.42
68199;BME280;55021;51.554;17.044;2024-01-27T03:55:30;101385.78;;;4.53;84.68
68199;BME280;55021;51.554;17.044;2024-01-27T04:10:32;101390.47;;;4.50;83.52
68199;BME280;55021;51.554;17.044;2024-01-27T04:25:35;101402.78;;;3.85;85.65
68199;BME280;55021;51.554;17.044;2024-01-27T04:40:37;101401.53;;;3.76;86.23
68199;BME280;55021;51.554;17.044;2024-01-27T04:55:40;101398.78;;;3.77;86.00
68199;BME280;55021;51.554;17.044;2024-01-27T05:10:42;101402.09;;;3.81;84.23
68199;BME280;55021;51.554;17.044;2024-01-27T05:25:45;101412.25;;;3.62;85.95
68199;BME280;55021;51.554;17.044;2024-01-27T05:40:47;101415.88;;;3.33;86.76
68199;BME280;55021;51.554;17.044;2024-01-27T05:55:50;101451.03;;;3.56;85.80
68199;BME280;55021;51.554;17.044;2024-01-27T06:10:52;101432.06;;;3.59;85.99
68199;BME280;55021;51.554;17.044;2024-01-27T06:25:55;101449.50;;;3.52;85.83
68199;BME280;55021;51.554;17.044;2024-01-27T06:40:57;101439.06;;;3.48;87.06
68199;BME280;55021;51.554;17.044;2024-01-27T06:55:59;101460.91;;;3.56;85.95
68199;BME280;55021;51.554;17.044;2024-01-27T07:11:02;101478.44;;;3.61;87.61
68199;BME280;55021;51.554;17.044;2024-01-27T07:26:04;101489.78;;;3.81;85.49
68199;BME280;55021;51.554;17.044;2024-01-27T07:41:06;101480.47;;;3.72;86.27
68199;BME280;55021;51.554;17.044;2024-01-27T07:56:09;101471.78;;;3.97;83.64
68199;BME280;55021;51.554;17.044;2024-01-27T08:11:11;101445.41;;;3.89;83.54
68199;BME280;55021;51.554;17.044;2024-01-27T08:26:13;101556.66;;;4.12;85.21
68199;BME280;55021;51.554;17.044;2024-01-27T08:41:18;101553.81;;;4.15;85.35
68199;BME280;55021;51.554;17.044;2024-01-27T08:56:20;101577.66;;;4.19;85.28
68199;BME280;55021;51.554;17.044;2024-01-27T09:11:23;101609.03;;;4.19;85.63
68199;BME280;55021;51.554;17.044;2024-01-27T09:26:25;101620.22;;;4.25;86.33
68199;BME280;55021;51.554;17.044;2024-01-27T09:41:31;101632.22;;;4.34;86.62
68199;BME280;55021;51.554;17.044;2024-01-27T09:56:34;101666.66;;;4.42;87.08
68199;BME280;55021;51.554;17.044;2024-01-27T10:11:45;101688.28;;;4.82;85.60
68199;BME280;55021;51.554;17.044;2024-01-27T10:26:48;101692.50;;;4.72;86.21
68199;BME280;55021;51.554;17.044;2024-01-27T10:41:51;101698.47;;;5.06;83.71
68199;BME280;55021;51.554;17.044;2024-01-27T10:56:54;101708.66;;;5.15;84.53
68199;BME280;55021;51.554;17.044;2024-01-27T11:11:57;101711.34;;;5.15;83.95
68199;BME280;55021;51.554;17.044;2024-01-27T11:27:03;101734.44;;;5.45;80.99
68199;BME280;55021;51.554;17.044;2024-01-27T11:42:05;101741.19;;;5.38;80.92
68199;BME280;55021;51.554;17.044;2024-01-27T11:57:09;101755.59;;;5.78;76.84
68199;BME280;55021;51.554;17.044;2024-01-27T12:12:11;101784.69;;;6.27;79.10
68199;BME280;55021;51.554;17.044;2024-01-27T12:27:16;101807.72;;;6.04;77.96
68199;BME280;55021;51.554;17.044;2024-01-27T12:42:21;101828.47;;;5.61;79.12
68199;BME280;55021;51.554;17.044;2024-01-27T12:57:24;101868.63;;;5.78;77.86
68199;BME280;55021;51.554;17.044;2024-01-27T13:12:27;101879.94;;;6.38;76.36
68199;BME280;55021;51.554;17.044;2024-01-27T13:27:29;101883.09;;;6.04;77.53
68199;BME280;55021;51.554;17.044;2024-01-27T13:42:32;101885.66;;;6.20;77.17
68199;BME280;55021;51.554;17.044;2024-01-27T13:57:34;101913.41;;;5.93;78.23
68199;BME280;55021;51.554;17.044;2024-01-27T14:12:36;101844.41;;;5.78;77.56
68199;BME280;55021;51.554;17.044;2024-01-27T14:27:39;101933.97;;;5.66;79.23
68199;BME280;55021;51.554;17.044;2024-01-27T14:42:41;101961.72;;;5.67;81.40
68199;BME280;55021;51.554;17.044;2024-01-27T14:57:43;101961.22;;;5.46;83.22
68199;BME280;55021;51.554;17.044;2024-01-27T15:12:46;102017.69;;;5.46;85.71
68199;BME280;55021;51.554;17.044;2024-01-27T15:27:49;102043.50;;;5.34;87.17
68199;BME280;55021;51.554;17.044;2024-01-27T15:42:51;102074.28;;;5.29;88.04
68199;BME280;55021;51.554;17.044;2024-01-27T15:57:56;102085.69;;;5.18;89.87
68199;BME280;55021;51.554;17.044;2024-01-27T16:12:58;102144.81;;;5.18;90.93
68199;BME280;55021;51.554;17.044;2024-01-27T16:28:01;102151.25;;;5.16;91.41
68199;BME280;55021;51.554;17.044;2024-01-27T16:43:03;102165.19;;;5.07;93.25
68199;BME280;55021;51.554;17.044;2024-01-27T16:58:08;102199.72;;;5.14;92.28
68199;BME280;55021;51.554;17.044;2024-01-27T17:13:10;102210.59;;;5.28;90.79
68199;BME280;55021;51.554;17.044;2024-01-27T17:28:13;102209.88;;;4.59;94.22
68199;BME280;55021;51.554;17.044;2024-01-27T17:43:15;102231.16;;;4.96;94.25
68199;BME280;55021;51.554;17.044;2024-01-27T17:58:18;102245.94;;;5.05;94.13
68199;BME280;55021;51.554;17.044;2024-01-27T18:13:20;102259.25;;;5.07;93.70
68199;BME280;55021;51.554;17.044;2024-01-27T18:28:27;102259.22;;;5.24;93.44
68199;BME280;55021;51.554;17.044;2024-01-27T18:43:29;102289.72;;;5.55;90.89
68199;BME280;55021;51.554;17.044;2024-01-27T18:58:32;102291.44;;;5.25;92.08
68199;BME280;55021;51.554;17.044;2024-01-27T19:13:34;102319.69;;;5.96;89.27
68199;BME280;55021;51.554;17.044;2024-01-27T19:28:36;102332.53;;;6.07;89.01
68199;BME280;55021;51.554;17.044;2024-01-27T19:43:38;102361.44;;;6.19;87.95
68199;BME280;55021;51.554;17.044;2024-01-27T19:58:41;102373.84;;;5.75;90.07
68199;BME280;55021;51.554;17.044;2024-01-27T20:13:43;102404.03;;;5.64;91.28
68199;BME280;55021;51.554;17.044;2024-01-27T20:28:46;102421.09;;;5.80;89.69
68199;BME280;55021;51.554;17.044;2024-01-27T20:43:48;102424.22;;;5.88;89.81
68199;BME280;55021;51.554;17.044;2024-01-27T20:58:50;102463.88;;;5.52;92.31
68199;BME280;55021;51.554;17.044;2024-01-27T21:13:53;102461.94;;;5.71;91.28
68199;BME280;55021;51.554;17.044;2024-01-27T21:28:55;102473.50;;;5.56;90.84
68199;BME280;55021;51.554;17.044;2024-01-27T21:43:57;102458.38;;;5.71;89.97
68199;BME280;55021;51.554;17.044;2024-01-27T21:59:00;102493.84;;;5.62;90.33
68199;BME280;55021;51.554;17.044;2024-01-27T22:14:02;102501.03;;;6.11;88.08
68199;BME280;55021;51.554;17.044;2024-01-27T22:29:04;102505.53;;;6.10;87.50
68199;BME280;55021;51.554;17.044;2024-01-27T22:44:06;102498.84;;;5.69;89.03
68199;BME280;55021;51.554;17.044;2024-01-27T22:59:09;102523.84;;;5.71;89.63
68199;BME280;55021;51.554;17.044;2024-01-27T23:14:11;102537.16;;;5.57;90.88
68199;BME280;55021;51.554;17.044;2024-01-27T23:29:13;102536.66;;;5.49;91.60
68199;BME280;55021;51.554;17.044;2024-01-27T23:44:15;102554.09;;;5.42;92.96
68199;BME280;55021;51.554;17.044;2024-01-27T23:59:18;102507.84;;;5.34;92.16
